createdAt,value
2022-09-26T00:00:01.479Z,7.73
2022-09-26T00:01:05.115Z,5.67
2022-09-26T00:02:01.250Z,4.97
2022-09-26T00:03:01.700Z,5.03
2022-09-26T00:04:10.367Z,5.00
2022-09-26T00:05:01.224Z,5.80
2022-09-26T00:06:01.852Z,5.00
2022-09-26T00:07:01.270Z,4.87
2022-09-26T00:08:01.460Z,3.93
2022-09-26T00:09:01.307Z,5.37
2022-09-26T00:10:01.230Z,5.20
2022-09-26T00:11:03.768Z,4.67
2022-09-26T00:12:01.194Z,4.90
2022-09-26T00:13:01.239Z,4.23
2022-09-26T00:14:03.991Z,4.57
2022-09-26T00:15:01.215Z,5.00
2022-09-26T00:16:01.961Z,5.23
2022-09-26T00:17:01.282Z,5.07
2022-09-26T00:18:00.955Z,5.13
2022-09-26T00:19:01.620Z,4.17
2022-09-26T00:20:01.100Z,4.80
2022-09-26T00:21:04.251Z,5.87
2022-09-26T00:22:00.921Z,4.23
2022-09-26T00:23:01.219Z,4.90
2022-09-26T00:24:02.254Z,4.90
2022-09-26T00:25:01.505Z,4.97
2022-09-26T00:26:01.776Z,4.63
2022-09-26T00:27:01.207Z,5.60
2022-09-26T00:28:01.161Z,5.47
2022-09-26T00:29:02.656Z,5.07
2022-09-26T00:30:01.243Z,4.63
2022-09-26T00:31:03.912Z,5.27
2022-09-26T00:32:01.017Z,4.87
2022-09-26T00:33:01.243Z,4.50
2022-09-26T00:34:01.495Z,5.17
2022-09-26T00:35:01.782Z,4.53
2022-09-26T00:36:02.036Z,5.90
2022-09-26T00:37:00.953Z,5.77
2022-09-26T00:38:01.387Z,6.60
2022-09-26T00:39:00.967Z,6.07
2022-09-26T00:40:01.080Z,5.90
2022-09-26T00:41:02.264Z,6.50
2022-09-26T00:42:00.971Z,5.23
2022-09-26T00:43:01.221Z,5.87
2022-09-26T00:44:01.748Z,5.40
2022-09-26T00:45:01.204Z,5.00
2022-09-26T00:46:08.954Z,6.30
2022-09-26T00:47:01.961Z,4.93
2022-09-26T00:48:03.611Z,4.77
2022-09-26T00:49:11.871Z,4.93
2022-09-26T00:50:06.677Z,6.30
2022-09-26T00:51:02.208Z,5.50
2022-09-26T00:52:05.327Z,5.13
2022-09-26T00:53:05.609Z,5.77
2022-09-26T00:54:02.693Z,4.47
2022-09-26T00:55:05.214Z,6.37
2022-09-26T00:56:06.389Z,6.13
2022-09-26T00:57:07.090Z,5.00
2022-09-26T00:58:06.958Z,6.13
2022-09-26T00:59:07.852Z,5.50
2022-09-26T01:00:10.222Z,4.77
2022-09-26T01:01:01.956Z,5.77
2022-09-26T01:02:01.685Z,6.33
2022-09-26T01:03:01.669Z,5.43
2022-09-26T01:04:04.075Z,5.93
2022-09-26T01:05:02.693Z,5.00
2022-09-26T01:06:01.496Z,5.73
2022-09-26T01:07:05.189Z,4.33
2022-09-26T01:08:02.530Z,5.83
2022-09-26T01:09:04.921Z,5.83
2022-09-26T01:10:03.369Z,5.00
2022-09-26T01:11:02.104Z,4.87
2022-09-26T01:12:03.480Z,6.63
2022-09-26T01:13:02.109Z,4.80
2022-09-26T01:14:01.966Z,5.87
2022-09-26T01:15:01.742Z,5.50
2022-09-26T01:16:01.249Z,5.43
2022-09-26T01:17:01.739Z,5.83
2022-09-26T01:18:02.147Z,5.80
2022-09-26T01:19:05.563Z,5.37
2022-09-26T01:20:15.698Z,5.40
2022-09-26T01:21:12.540Z,5.40
2022-09-26T01:22:20.405Z,5.07
2022-09-26T01:23:20.401Z,6.27
2022-09-26T01:24:20.396Z,5.23
2022-09-26T01:25:17.957Z,4.87
2022-09-26T01:26:18.472Z,5.30
2022-09-26T01:27:20.430Z,7.47
2022-09-26T01:28:20.230Z,5.73
2022-09-26T01:29:20.402Z,5.70
2022-09-26T01:30:08.850Z,6.83
2022-09-26T01:31:07.636Z,6.37
2022-09-26T01:32:09.287Z,6.00
2022-09-26T01:33:20.413Z,6.07
2022-09-26T01:34:07.480Z,5.67
2022-09-26T01:35:11.251Z,6.17
2022-09-26T01:36:18.273Z,6.13
2022-09-26T01:37:07.976Z,6.23
2022-09-26T01:38:13.095Z,6.17
2022-09-26T01:39:17.800Z,5.27
2022-09-26T01:40:09.904Z,6.17
2022-09-26T01:41:18.036Z,5.00
2022-09-26T01:42:14.622Z,5.93
2022-09-26T01:43:10.918Z,5.93
2022-09-26T01:44:11.679Z,6.03
2022-09-26T01:45:08.897Z,6.30
2022-09-26T01:46:10.906Z,5.87
2022-09-26T01:47:10.239Z,5.10
2022-09-26T01:48:07.363Z,5.93
2022-09-26T01:49:08.924Z,6.23
2022-09-26T01:50:07.194Z,5.20
2022-09-26T01:51:07.849Z,6.13
2022-09-26T01:52:08.342Z,5.97
2022-09-26T01:53:05.608Z,5.87
2022-09-26T01:54:05.747Z,5.77
2022-09-26T01:55:08.234Z,5.60
2022-09-26T01:56:05.714Z,6.17
2022-09-26T01:57:06.129Z,6.90
2022-09-26T01:58:06.726Z,6.33
2022-09-26T01:59:07.402Z,6.03
2022-09-26T02:00:05.483Z,5.37
2022-09-26T02:01:05.172Z,6.00
2022-09-26T02:02:07.427Z,6.73
2022-09-26T02:03:04.935Z,5.67
2022-09-26T02:04:08.441Z,7.07
2022-09-26T02:05:07.298Z,5.77
2022-09-26T02:06:07.219Z,6.80
2022-09-26T02:07:08.265Z,6.80
2022-09-26T02:08:09.427Z,5.07
2022-09-26T02:09:08.444Z,6.40
2022-09-26T02:10:07.161Z,6.33
2022-09-26T02:11:04.889Z,6.07
2022-09-26T02:12:05.913Z,5.97
2022-09-26T02:13:08.496Z,6.60
2022-09-26T02:14:05.269Z,7.87
2022-09-26T02:15:08.014Z,5.77
2022-09-26T02:16:07.358Z,6.20
2022-09-26T02:17:06.770Z,7.63
2022-09-26T02:18:06.594Z,7.13
2022-09-26T02:19:06.936Z,6.03
2022-09-26T02:20:05.777Z,6.33
2022-09-26T02:21:06.022Z,6.47
2022-09-26T02:22:01.704Z,5.73
2022-09-26T02:23:01.464Z,6.40
2022-09-26T02:24:01.797Z,6.90
2022-09-26T02:25:02.872Z,7.33
2022-09-26T02:26:01.364Z,6.77
2022-09-26T02:27:00.951Z,6.90
2022-09-26T02:28:03.111Z,5.67
2022-09-26T02:29:01.760Z,5.43
2022-09-26T02:30:01.361Z,7.37
2022-09-26T02:31:03.305Z,6.13
2022-09-26T02:32:06.715Z,6.63
2022-09-26T02:33:01.497Z,7.00
2022-09-26T02:34:02.158Z,6.00
2022-09-26T02:35:04.022Z,7.10
2022-09-26T02:36:02.396Z,6.83
2022-09-26T02:37:01.412Z,6.43
2022-09-26T02:38:02.207Z,7.67
2022-09-26T02:39:01.539Z,6.13
2022-09-26T02:40:01.416Z,7.63
2022-09-26T02:41:11.560Z,6.07
2022-09-26T02:42:10.683Z,6.37
2022-09-26T02:43:15.232Z,6.20
2022-09-26T02:44:18.832Z,5.87
2022-09-26T02:45:14.045Z,7.27
2022-09-26T02:46:14.572Z,7.37
2022-09-26T02:47:17.812Z,7.00
2022-09-26T02:48:18.864Z,7.07
2022-09-26T02:49:14.529Z,6.07
2022-09-26T02:50:17.940Z,6.27
2022-09-26T02:51:12.118Z,7.10
2022-09-26T02:52:18.084Z,6.57
2022-09-26T02:53:16.969Z,6.20
2022-09-26T02:54:16.607Z,6.77
2022-09-26T02:55:12.786Z,6.50
2022-09-26T02:56:10.678Z,7.57
2022-09-26T02:57:13.190Z,6.90
2022-09-26T02:58:11.762Z,7.40
2022-09-26T02:59:08.217Z,7.67
2022-09-26T03:00:05.792Z,7.23
2022-09-26T03:01:07.005Z,6.70
2022-09-26T03:02:07.466Z,7.80
2022-09-26T03:03:06.564Z,6.47
2022-09-26T03:04:07.726Z,6.60
2022-09-26T03:05:06.618Z,5.87
2022-09-26T03:06:04.527Z,7.40
2022-09-26T03:07:06.942Z,6.80
2022-09-26T03:08:07.501Z,6.60
2022-09-26T03:09:02.782Z,7.53
2022-09-26T03:10:05.582Z,6.90
2022-09-26T03:11:04.140Z,5.87
2022-09-26T03:12:05.047Z,6.90
2022-09-26T03:13:05.956Z,6.27
2022-09-26T03:14:02.688Z,6.03
2022-09-26T03:15:04.057Z,6.80
2022-09-26T03:16:01.526Z,6.77
2022-09-26T03:17:03.645Z,6.50
2022-09-26T03:18:03.439Z,6.97
2022-09-26T03:19:05.394Z,7.33
2022-09-26T03:20:05.254Z,7.83
2022-09-26T03:21:01.254Z,5.90
2022-09-26T03:22:01.400Z,6.73
2022-09-26T03:23:03.134Z,6.03
2022-09-26T03:24:01.462Z,6.33
2022-09-26T03:25:04.488Z,6.77
2022-09-26T03:26:04.032Z,6.20
2022-09-26T03:27:02.912Z,6.63
2022-09-26T03:28:01.142Z,6.67
2022-09-26T03:29:01.261Z,6.87
2022-09-26T03:30:01.329Z,7.40
2022-09-26T03:31:01.241Z,5.70
2022-09-26T03:32:01.789Z,6.00
2022-09-26T03:33:01.217Z,6.67
2022-09-26T03:34:01.234Z,5.57
2022-09-26T03:35:00.939Z,6.07
2022-09-26T03:36:04.371Z,6.40
2022-09-26T03:37:01.336Z,6.10
2022-09-26T03:38:00.900Z,5.77
2022-09-26T03:39:01.491Z,6.47
2022-09-26T03:40:01.778Z,7.53
2022-09-26T03:41:01.328Z,6.37
2022-09-26T03:42:01.301Z,5.87
2022-09-26T03:43:01.331Z,6.10
2022-09-26T03:44:01.647Z,4.37
2022-09-26T03:45:02.093Z,5.53
2022-09-26T03:46:02.439Z,6.33
2022-09-26T03:47:01.441Z,5.87
2022-09-26T03:48:01.745Z,6.33
2022-09-26T03:49:01.296Z,5.37
2022-09-26T03:50:00.958Z,5.20
2022-09-26T03:51:02.089Z,5.07
2022-09-26T03:52:01.842Z,6.53
2022-09-26T03:53:01.355Z,5.97
2022-09-26T03:54:01.406Z,5.43
2022-09-26T03:55:00.949Z,5.87
2022-09-26T03:56:02.751Z,6.10
2022-09-26T03:57:00.906Z,6.20
2022-09-26T03:58:01.636Z,5.43
2022-09-26T03:59:01.196Z,6.30
2022-09-26T04:00:01.106Z,4.87
2022-09-26T04:01:03.844Z,5.50
2022-09-26T04:02:00.966Z,6.00
2022-09-26T04:03:01.196Z,5.10
2022-09-26T04:04:01.511Z,5.90
2022-09-26T04:05:01.417Z,4.53
2022-09-26T04:06:01.657Z,5.93
2022-09-26T04:07:01.162Z,5.80
2022-09-26T04:08:01.194Z,5.20
2022-09-26T04:09:01.477Z,5.40
2022-09-26T04:10:01.540Z,4.73
2022-09-26T04:11:02.004Z,5.90
2022-09-26T04:12:01.185Z,4.93
2022-09-26T04:13:01.212Z,6.20
2022-09-26T04:14:01.214Z,5.63
2022-09-26T04:15:01.219Z,5.20
2022-09-26T04:16:01.451Z,5.47
2022-09-26T04:17:01.220Z,6.73
2022-09-26T04:18:00.917Z,4.73
2022-09-26T04:19:01.415Z,5.73
2022-09-26T04:20:01.789Z,5.63
2022-09-26T04:21:06.760Z,5.03
2022-09-26T04:22:01.325Z,5.73
2022-09-26T04:23:01.203Z,5.40
2022-09-26T04:24:01.303Z,4.93
2022-09-26T04:25:01.193Z,5.03
2022-09-26T04:26:03.363Z,5.47
2022-09-26T04:27:02.726Z,5.73
2022-09-26T04:28:01.113Z,4.37
2022-09-26T04:29:00.911Z,4.33
2022-09-26T04:30:00.911Z,4.50
2022-09-26T04:31:02.842Z,4.53
2022-09-26T04:32:01.570Z,5.40
2022-09-26T04:33:01.213Z,5.00
2022-09-26T04:34:01.318Z,3.53
2022-09-26T04:35:01.200Z,5.10
2022-09-26T04:36:02.570Z,4.80
2022-09-26T04:37:00.903Z,4.13
2022-09-26T04:38:01.558Z,4.87
2022-09-26T04:39:00.913Z,5.77
2022-09-26T04:40:01.189Z,5.93
2022-09-26T04:41:03.960Z,5.33
2022-09-26T04:42:01.204Z,4.20
2022-09-26T04:43:00.946Z,4.00
2022-09-26T04:44:01.549Z,4.67
2022-09-26T04:45:00.919Z,5.47
2022-09-26T04:46:05.233Z,4.87
2022-09-26T04:47:00.905Z,4.90
2022-09-26T04:48:01.469Z,4.87
2022-09-26T04:49:01.886Z,6.33
2022-09-26T04:50:00.944Z,4.30
2022-09-26T04:51:03.827Z,5.87
2022-09-26T04:52:01.389Z,5.17
2022-09-26T04:53:01.434Z,4.83
2022-09-26T04:54:00.902Z,4.33
2022-09-26T04:55:01.211Z,4.70
2022-09-26T04:56:01.869Z,4.57
2022-09-26T04:57:01.186Z,4.10
2022-09-26T04:58:01.205Z,4.67
2022-09-26T04:59:01.245Z,6.17
2022-09-26T05:00:01.841Z,5.53
2022-09-26T05:01:02.939Z,4.67
2022-09-26T05:02:01.031Z,5.67
2022-09-26T05:03:01.256Z,5.17
2022-09-26T05:04:01.194Z,5.87
2022-09-26T05:05:00.908Z,4.27
2022-09-26T05:06:00.909Z,3.90
2022-09-26T05:07:01.233Z,4.77
2022-09-26T05:08:01.213Z,5.00
2022-09-26T05:09:01.225Z,5.63
2022-09-26T05:10:01.191Z,4.80
2022-09-26T05:11:01.716Z,4.70
2022-09-26T05:12:01.131Z,4.83
2022-09-26T05:13:01.255Z,4.60
2022-09-26T05:14:01.211Z,4.87
2022-09-26T05:15:01.208Z,4.27
2022-09-26T05:16:02.126Z,4.53
2022-09-26T05:17:01.333Z,5.53
2022-09-26T05:18:00.916Z,4.83
2022-09-26T05:19:01.388Z,4.53
2022-09-26T05:20:01.677Z,4.50
2022-09-26T05:21:01.069Z,4.67
2022-09-26T05:22:01.148Z,3.73
2022-09-26T05:23:01.354Z,4.73
2022-09-26T05:24:01.917Z,2.77
2022-09-26T05:25:01.260Z,4.00
2022-09-26T05:26:01.546Z,3.87
2022-09-26T05:27:05.238Z,4.00
2022-09-26T05:28:01.030Z,5.00
2022-09-26T05:29:06.834Z,3.90
2022-09-26T05:30:00.916Z,3.13
2022-09-26T05:31:01.213Z,4.23
2022-09-26T05:32:01.252Z,4.63
2022-09-26T05:33:01.517Z,4.50
2022-09-26T05:34:01.071Z,3.10
2022-09-26T05:35:01.215Z,2.47
2022-09-26T05:36:01.217Z,3.73
2022-09-26T05:37:01.196Z,3.10
2022-09-26T05:38:02.398Z,2.97
2022-09-26T05:39:02.008Z,2.83
2022-09-26T05:40:01.105Z,2.47
2022-09-26T05:41:01.350Z,2.70
2022-09-26T05:42:00.991Z,2.37
2022-09-26T05:43:01.993Z,2.23
2022-09-26T05:44:01.166Z,1.67
2022-09-26T05:45:01.212Z,2.73
2022-09-26T05:46:03.493Z,2.10
2022-09-26T05:47:00.972Z,1.70
2022-09-26T05:48:01.339Z,1.87
2022-09-26T05:49:00.894Z,2.00
2022-09-26T05:50:01.447Z,2.30
2022-09-26T05:51:02.027Z,2.10
2022-09-26T05:52:01.535Z,2.30
2022-09-26T05:53:01.954Z,1.13
2022-09-26T05:54:00.958Z,1.63
2022-09-26T05:55:01.337Z,1.90
2022-09-26T05:56:01.375Z,2.20
2022-09-26T05:57:01.218Z,2.67
2022-09-26T05:58:01.226Z,2.80
2022-09-26T05:59:01.214Z,1.60
2022-09-26T06:00:01.049Z,1.90
2022-09-26T06:01:02.143Z,1.23
2022-09-26T06:02:03.572Z,2.07
2022-09-26T06:03:01.725Z,2.47
2022-09-26T06:04:01.592Z,2.23
2022-09-26T06:05:00.897Z,1.90
2022-09-26T06:06:02.601Z,2.00
2022-09-26T06:07:01.239Z,1.87
2022-09-26T06:08:01.396Z,1.77
2022-09-26T06:09:01.177Z,1.40
2022-09-26T06:10:00.916Z,1.70
2022-09-26T06:11:02.178Z,2.03
2022-09-26T06:12:01.432Z,2.17
2022-09-26T06:13:01.916Z,1.87
2022-09-26T06:14:01.349Z,2.87
2022-09-26T06:15:01.238Z,1.77
2022-09-26T06:16:01.394Z,2.27
2022-09-26T06:17:01.372Z,2.00
2022-09-26T06:18:03.013Z,2.13
2022-09-26T06:19:00.915Z,2.00
2022-09-26T06:20:01.180Z,1.17
2022-09-26T06:21:01.790Z,1.93
2022-09-26T06:22:01.215Z,2.43
2022-09-26T06:23:01.204Z,1.87
2022-09-26T06:24:01.093Z,2.00
2022-09-26T06:25:00.906Z,2.10
2022-09-26T06:26:01.666Z,2.73
2022-09-26T06:27:01.330Z,2.73
2022-09-26T06:28:01.686Z,1.43
2022-09-26T06:29:01.238Z,1.53
2022-09-26T06:30:00.912Z,3.00
2022-09-26T06:31:08.637Z,1.80
2022-09-26T06:32:01.193Z,2.13
2022-09-26T06:33:01.238Z,2.97
2022-09-26T06:34:01.224Z,2.27
2022-09-26T06:35:01.476Z,2.43
2022-09-26T06:36:03.231Z,2.97
2022-09-26T06:37:00.909Z,2.23
2022-09-26T06:38:01.227Z,1.73
2022-09-26T06:39:01.127Z,2.53
2022-09-26T06:40:01.205Z,2.90
2022-09-26T06:41:01.406Z,1.97
2022-09-26T06:42:01.471Z,3.00
2022-09-26T06:43:01.222Z,3.53
2022-09-26T06:44:01.242Z,2.20
2022-09-26T06:45:01.213Z,2.53
2022-09-26T06:46:01.564Z,2.63
2022-09-26T06:47:01.308Z,2.60
2022-09-26T06:48:01.668Z,1.90
2022-09-26T06:49:01.251Z,2.63
2022-09-26T06:50:01.726Z,2.73
2022-09-26T06:51:01.406Z,2.63
2022-09-26T06:52:01.507Z,2.83
2022-09-26T06:53:04.902Z,3.03
2022-09-26T06:54:00.931Z,2.73
2022-09-26T06:55:03.113Z,2.90
2022-09-26T06:56:01.720Z,3.17
2022-09-26T06:57:01.189Z,2.17
2022-09-26T06:58:01.259Z,2.23
2022-09-26T06:59:00.915Z,2.80
2022-09-26T07:00:01.149Z,1.67
2022-09-26T07:01:01.753Z,2.83
2022-09-26T07:02:01.361Z,2.50
2022-09-26T07:03:01.787Z,3.00
2022-09-26T07:04:01.251Z,2.53
2022-09-26T07:05:01.346Z,2.80
2022-09-26T07:06:00.956Z,2.77
2022-09-26T07:07:01.295Z,3.03
2022-09-26T07:08:01.257Z,2.57
2022-09-26T07:09:03.857Z,2.53
2022-09-26T07:10:00.912Z,2.87
2022-09-26T07:11:27.899Z,3.00
2022-09-26T07:12:15.369Z,2.53
2022-09-26T07:13:02.918Z,2.67
2022-09-26T07:14:01.223Z,3.27
2022-09-26T07:15:01.190Z,2.93
2022-09-26T07:16:01.308Z,2.83
2022-09-26T07:17:01.211Z,2.60
2022-09-26T07:18:01.938Z,3.50
2022-09-26T07:19:00.923Z,2.83
2022-09-26T07:20:01.217Z,1.93
2022-09-26T07:21:03.971Z,2.30
2022-09-26T07:22:01.210Z,3.27
2022-09-26T07:23:01.855Z,3.00
2022-09-26T07:24:01.185Z,3.10
2022-09-26T07:25:00.932Z,3.33
2022-09-26T07:26:00.915Z,1.57
2022-09-26T07:27:01.382Z,3.83
2022-09-26T07:28:01.584Z,2.63
2022-09-26T07:29:00.924Z,2.27
2022-09-26T07:30:01.240Z,3.17
2022-09-26T07:31:00.946Z,3.70
2022-09-26T07:32:01.146Z,3.70
2022-09-26T07:33:03.742Z,3.97
2022-09-26T07:34:01.560Z,2.60
2022-09-26T07:35:01.139Z,3.83
2022-09-26T07:36:05.269Z,4.20
2022-09-26T07:37:01.223Z,3.00
2022-09-26T07:38:02.126Z,2.90
2022-09-26T07:39:00.907Z,3.13
2022-09-26T07:40:01.818Z,3.03
2022-09-26T07:41:01.371Z,3.00
2022-09-26T07:42:00.926Z,4.17
2022-09-26T07:43:19.060Z,3.90
2022-09-26T07:45:17.101Z,3.63
2022-09-26T07:45:22.302Z,3.77
2022-09-26T07:46:01.220Z,4.00
2022-09-26T07:47:01.487Z,3.53
2022-09-26T07:48:01.035Z,4.10
2022-09-26T07:49:01.212Z,4.07
2022-09-26T07:50:01.238Z,3.83
2022-09-26T07:51:05.680Z,2.97
2022-09-26T07:52:01.165Z,4.00
2022-09-26T07:53:01.227Z,3.20
2022-09-26T07:54:01.210Z,2.53
2022-09-26T07:55:01.211Z,3.27
2022-09-26T07:56:01.312Z,3.20
2022-09-26T07:57:01.223Z,3.83
2022-09-26T07:58:01.206Z,3.27
2022-09-26T07:59:01.367Z,3.83
2022-09-26T08:00:01.616Z,3.27
2022-09-26T08:01:01.403Z,3.40
2022-09-26T08:02:01.433Z,4.53
2022-09-26T08:03:01.419Z,3.80
2022-09-26T08:04:01.402Z,3.57
2022-09-26T08:05:01.448Z,3.77
2022-09-26T08:06:01.292Z,3.43
2022-09-26T08:07:01.203Z,3.47
2022-09-26T08:08:01.079Z,3.57
2022-09-26T08:09:01.425Z,3.57
2022-09-26T08:10:01.572Z,3.30
2022-09-26T08:11:03.992Z,4.67
2022-09-26T08:12:01.178Z,3.50
2022-09-26T08:13:00.899Z,4.33
2022-09-26T08:14:00.921Z,4.63
2022-09-26T08:15:01.096Z,4.60
2022-09-26T08:16:03.065Z,3.97
2022-09-26T08:17:00.915Z,4.03
2022-09-26T08:18:02.789Z,3.57
2022-09-26T08:19:00.905Z,4.30
2022-09-26T08:20:02.056Z,3.23
2022-09-26T08:21:01.797Z,3.07
2022-09-26T08:22:01.219Z,3.33
2022-09-26T08:23:01.222Z,3.80
2022-09-26T08:24:01.747Z,3.73
2022-09-26T08:25:01.488Z,4.33
2022-09-26T08:26:02.538Z,3.60
2022-09-26T08:27:01.034Z,4.23
2022-09-26T08:28:01.368Z,3.00
2022-09-26T08:29:01.199Z,4.23
2022-09-26T08:30:01.332Z,4.33
2022-09-26T08:31:01.462Z,3.60
2022-09-26T08:32:01.242Z,4.10
2022-09-26T08:33:00.952Z,3.73
2022-09-26T08:34:01.349Z,2.60
2022-09-26T08:35:01.221Z,3.80
2022-09-26T08:36:03.801Z,4.47
2022-09-26T08:37:01.210Z,4.37
2022-09-26T08:38:01.806Z,4.00
2022-09-26T08:39:01.213Z,3.83
2022-09-26T08:40:01.743Z,3.80
2022-09-26T08:41:13.852Z,4.17
2022-09-26T08:42:08.330Z,4.23
2022-09-26T08:43:12.704Z,3.90
2022-09-26T08:44:12.396Z,4.00
2022-09-26T08:45:20.428Z,3.90
2022-09-26T08:46:07.626Z,3.73
2022-09-26T08:47:04.664Z,5.00
2022-09-26T08:48:08.462Z,5.33
2022-09-26T08:49:16.772Z,5.03
2022-09-26T08:50:10.516Z,3.37
2022-09-26T08:51:11.866Z,5.50
2022-09-26T08:52:07.758Z,5.90
2022-09-26T08:53:05.813Z,5.23
2022-09-26T08:54:10.247Z,7.10
2022-09-26T08:55:06.882Z,4.50
2022-09-26T08:56:07.858Z,4.83
2022-09-26T08:57:06.129Z,4.97
2022-09-26T08:58:04.514Z,3.57
2022-09-26T08:59:05.053Z,5.20
2022-09-26T09:00:10.637Z,4.00
2022-09-26T09:01:03.484Z,3.90
2022-09-26T09:02:10.132Z,4.13
2022-09-26T09:03:10.356Z,4.17
2022-09-26T09:04:06.988Z,4.53
2022-09-26T09:05:08.829Z,5.23
2022-09-26T09:06:04.898Z,5.00
2022-09-26T09:07:09.733Z,4.00
2022-09-26T09:08:03.427Z,5.40
2022-09-26T09:09:01.300Z,4.17
2022-09-26T09:10:05.720Z,4.67
2022-09-26T09:11:09.259Z,4.90
2022-09-26T09:12:12.329Z,4.20
2022-09-26T09:13:08.876Z,4.07
2022-09-26T09:14:17.397Z,4.87
2022-09-26T09:15:25.802Z,5.03
2022-09-26T09:16:17.534Z,4.17
2022-09-26T09:17:14.560Z,4.63
2022-09-26T09:18:16.063Z,4.50
2022-09-26T09:19:10.508Z,4.53
2022-09-26T09:20:09.699Z,3.10
2022-09-26T09:21:10.096Z,5.13
2022-09-26T09:22:19.029Z,4.67
2022-09-26T09:23:16.124Z,3.97
2022-09-26T09:24:16.341Z,4.53
2022-09-26T09:25:03.513Z,4.63
2022-09-26T09:28:12.817Z,4.23
2022-09-26T09:29:19.117Z,4.13
2022-09-26T09:30:16.852Z,4.47
2022-09-26T09:31:05.988Z,3.53
2022-09-26T09:32:03.931Z,4.57
2022-09-26T09:33:07.765Z,3.90
2022-09-26T09:34:05.587Z,4.17
2022-09-26T09:35:02.288Z,4.23
2022-09-26T09:36:06.037Z,5.27
2022-09-26T09:37:08.206Z,3.83
2022-09-26T09:38:02.377Z,4.23
2022-09-26T09:39:05.276Z,4.80
2022-09-26T09:40:02.133Z,3.87
2022-09-26T09:41:06.568Z,4.50
2022-09-26T09:42:06.447Z,4.57
2022-09-26T09:43:05.368Z,5.17
2022-09-26T09:44:08.709Z,4.10
2022-09-26T09:45:05.729Z,3.80
2022-09-26T09:46:04.452Z,4.90
2022-09-26T09:47:07.221Z,4.70
2022-09-26T09:48:01.436Z,4.87
2022-09-26T09:49:17.122Z,4.50
2022-09-26T09:50:01.275Z,4.13
2022-09-26T09:51:17.051Z,4.57
2022-09-26T09:52:17.697Z,4.60
2022-09-26T09:53:12.972Z,4.90
2022-09-26T09:54:20.333Z,3.77
2022-09-26T09:55:12.211Z,4.23
2022-09-26T09:56:09.648Z,5.33
2022-09-26T09:57:20.413Z,4.23
2022-09-26T09:58:20.416Z,4.63
2022-09-26T09:59:14.532Z,4.43
2022-09-26T10:00:10.945Z,4.10
2022-09-26T10:01:09.807Z,4.20
2022-09-26T10:02:14.212Z,4.57
2022-09-26T10:03:10.358Z,4.07
2022-09-26T10:04:10.535Z,3.80
2022-09-26T10:05:16.670Z,4.37
2022-09-26T10:06:03.865Z,4.93
2022-09-26T10:07:01.095Z,5.70
2022-09-26T10:08:02.819Z,4.80
2022-09-26T10:09:39.329Z,5.53
2022-09-26T10:10:00.916Z,5.10
2022-09-26T10:11:10.935Z,4.50
2022-09-26T10:12:13.135Z,4.80
2022-09-26T10:13:01.646Z,5.20
2022-09-26T10:14:06.146Z,4.80
2022-09-26T10:15:04.135Z,3.47
2022-09-26T10:16:04.802Z,4.87
2022-09-26T10:17:13.719Z,5.00
2022-09-26T10:18:22.993Z,5.00
2022-09-26T10:19:05.364Z,5.43
2022-09-26T10:20:01.590Z,5.70
2022-09-26T10:21:10.420Z,4.17
2022-09-26T10:22:01.377Z,5.40
2022-09-26T10:23:00.989Z,5.23
2022-09-26T10:24:02.966Z,5.57
2022-09-26T10:25:05.343Z,5.33
2022-09-26T10:26:04.025Z,5.10
2022-09-26T10:27:15.433Z,4.80
2022-09-26T10:28:01.262Z,5.47
2022-09-26T10:29:03.989Z,5.47
2022-09-26T10:30:05.536Z,4.97
2022-09-26T10:31:06.157Z,4.70
2022-09-26T10:32:02.710Z,5.33
2022-09-26T10:33:01.878Z,4.97
2022-09-26T10:34:04.596Z,6.10
2022-09-26T10:35:06.213Z,5.07
2022-09-26T10:36:08.540Z,4.93
2022-09-26T10:37:19.517Z,4.20
2022-09-26T10:38:05.443Z,4.83
2022-09-26T10:39:05.086Z,5.40
2022-09-26T10:40:01.966Z,4.17
2022-09-26T10:41:02.377Z,5.10
2022-09-26T10:42:02.422Z,6.43
2022-09-26T10:43:20.429Z,4.80
2022-09-26T10:44:01.214Z,6.03
2022-09-26T10:45:12.979Z,5.67
2022-09-26T10:46:07.195Z,6.77
2022-09-26T10:47:03.481Z,6.87
2022-09-26T10:48:04.498Z,5.40
2022-09-26T10:49:03.157Z,5.20
2022-09-26T10:50:06.332Z,5.70
2022-09-26T10:51:01.384Z,6.70
2022-09-26T10:52:07.368Z,5.97
2022-09-26T10:53:05.286Z,5.53
2022-09-26T10:54:08.436Z,6.93
2022-09-26T10:55:04.925Z,6.20
2022-09-26T10:56:07.808Z,7.17
2022-09-26T10:57:01.399Z,5.83
2022-09-26T10:58:12.826Z,6.03
2022-09-26T10:59:02.623Z,6.73
2022-09-26T11:00:01.600Z,6.30
2022-09-26T11:01:01.220Z,6.13
2022-09-26T11:02:02.233Z,6.70
2022-09-26T11:03:02.800Z,6.27
2022-09-26T11:04:13.428Z,6.37
2022-09-26T11:05:04.952Z,6.43
2022-09-26T11:06:01.314Z,6.57
2022-09-26T11:07:01.148Z,5.87
2022-09-26T11:08:04.304Z,7.37
2022-09-26T11:09:03.012Z,5.63
2022-09-26T11:10:05.594Z,6.87
2022-09-26T11:11:04.288Z,5.97
2022-09-26T11:12:20.414Z,5.93
2022-09-26T11:13:11.961Z,6.53
2022-09-26T11:14:04.010Z,6.60
2022-09-26T11:15:07.649Z,6.90
2022-09-26T11:16:08.500Z,6.90
2022-09-26T11:17:00.908Z,6.20
2022-09-26T11:18:01.371Z,6.13
2022-09-26T11:19:09.624Z,5.77
2022-09-26T11:20:02.484Z,7.23
2022-09-26T11:21:23.072Z,5.50
2022-09-26T11:22:09.544Z,7.40
2022-09-26T11:23:10.281Z,5.53
2022-09-26T11:24:12.691Z,5.97
2022-09-26T11:25:07.066Z,5.37
2022-09-26T11:26:13.495Z,6.40
2022-09-26T11:27:11.216Z,5.70
2022-09-26T11:28:07.679Z,6.10
2022-09-26T11:29:11.811Z,6.00
2022-09-26T11:30:07.236Z,5.87
2022-09-26T11:31:09.327Z,6.00
2022-09-26T11:32:01.420Z,5.47
2022-09-26T11:33:01.968Z,4.40
2022-09-26T11:34:03.267Z,5.90
2022-09-26T11:35:01.959Z,4.13
2022-09-26T11:36:15.933Z,5.47
2022-09-26T11:37:17.314Z,5.63
2022-09-26T11:38:10.804Z,5.97
2022-09-26T11:39:11.657Z,5.33
2022-09-26T11:40:16.017Z,5.27
2022-09-26T11:41:10.230Z,7.17
2022-09-26T11:42:13.771Z,5.17
2022-09-26T11:43:14.540Z,5.33
2022-09-26T11:44:16.145Z,6.10
2022-09-26T11:45:08.662Z,5.97
2022-09-26T11:46:20.382Z,6.13
2022-09-26T11:47:16.074Z,6.03
2022-09-26T11:48:15.995Z,5.80
2022-09-26T11:49:13.825Z,4.97
2022-09-26T11:50:16.792Z,5.47
2022-09-26T11:51:12.325Z,5.60
2022-09-26T11:52:14.647Z,4.90
2022-09-26T11:53:17.318Z,6.43
2022-09-26T11:54:18.789Z,6.73
2022-09-26T11:55:10.259Z,5.27
2022-09-26T11:56:19.480Z,6.20
2022-09-26T11:57:10.927Z,5.97
2022-09-26T11:58:09.410Z,6.00
2022-09-26T11:59:17.390Z,6.13
2022-09-26T12:00:09.966Z,6.00
2022-09-26T12:01:11.585Z,6.33
2022-09-26T12:02:20.555Z,5.30
2022-09-26T12:03:20.555Z,6.80
2022-09-26T12:04:20.224Z,6.57
2022-09-26T12:05:15.595Z,5.27
2022-09-26T12:06:11.544Z,5.70
2022-09-26T12:07:11.293Z,5.70
2022-09-26T12:08:17.899Z,4.57
2022-09-26T12:09:20.434Z,6.67
2022-09-26T12:10:17.357Z,4.93
2022-09-26T12:11:12.524Z,4.83
2022-09-26T12:12:13.280Z,5.73
2022-09-26T12:13:12.071Z,6.23
2022-09-26T12:14:08.489Z,6.97
2022-09-26T12:15:14.051Z,4.20
2022-09-26T12:16:09.577Z,5.90
2022-09-26T12:17:08.613Z,6.23
2022-09-26T12:18:11.758Z,6.30
2022-09-26T12:19:12.855Z,6.07
2022-09-26T12:20:12.357Z,5.50
2022-09-26T12:21:15.775Z,5.07
2022-09-26T12:22:07.590Z,5.60
2022-09-26T12:23:11.635Z,7.13
2022-09-26T12:24:10.544Z,5.50
2022-09-26T12:25:20.589Z,6.40
2022-09-26T12:26:11.036Z,4.93
2022-09-26T12:27:10.693Z,5.47
2022-09-26T12:28:12.523Z,5.47
2022-09-26T12:29:17.182Z,4.90
2022-09-26T12:30:08.332Z,6.17
2022-09-26T12:31:13.945Z,4.57
2022-09-26T12:32:11.356Z,5.20
2022-09-26T12:33:19.525Z,5.10
2022-09-26T12:34:20.320Z,5.70
2022-09-26T12:35:12.862Z,5.97
2022-09-26T12:36:10.657Z,4.23
2022-09-26T12:37:17.042Z,5.37
2022-09-26T12:38:19.305Z,4.40
2022-09-26T12:39:18.550Z,5.70
2022-09-26T12:40:15.368Z,5.70
2022-09-26T12:41:08.712Z,5.30
2022-09-26T12:42:14.139Z,5.70
2022-09-26T12:43:19.598Z,5.07
2022-09-26T12:44:18.954Z,5.83
2022-09-26T12:45:20.590Z,5.33
2022-09-26T12:46:20.544Z,5.87
2022-09-26T12:47:13.787Z,4.83
2022-09-26T12:48:18.721Z,4.43
2022-09-26T12:49:17.478Z,4.33
2022-09-26T12:50:14.555Z,5.70
2022-09-26T12:51:14.484Z,3.93
2022-09-26T12:52:09.353Z,4.37
2022-09-26T12:53:19.456Z,4.40
2022-09-26T12:54:20.405Z,5.00
2022-09-26T12:55:17.328Z,4.57
2022-09-26T12:56:06.001Z,4.73
2022-09-26T12:57:10.074Z,3.70
2022-09-26T12:58:13.912Z,4.47
2022-09-26T12:59:19.148Z,4.80
2022-09-26T13:00:13.158Z,5.10
2022-09-26T13:01:14.864Z,4.10
2022-09-26T13:02:20.453Z,4.50
2022-09-26T13:03:20.457Z,4.83
2022-09-26T13:04:19.116Z,5.27
2022-09-26T13:05:14.760Z,5.00
2022-09-26T13:06:18.903Z,4.80
2022-09-26T13:07:19.221Z,5.60
2022-09-26T13:08:12.137Z,4.70
2022-09-26T13:09:13.952Z,5.00
2022-09-26T13:10:18.340Z,4.03
2022-09-26T13:11:10.971Z,4.57
2022-09-26T13:12:15.004Z,4.47
2022-09-26T13:13:20.428Z,4.57
2022-09-26T13:14:20.412Z,4.97
2022-09-26T13:15:15.262Z,4.37
2022-09-26T13:16:13.546Z,5.80
2022-09-26T13:17:09.982Z,5.50
2022-09-26T13:18:08.031Z,3.90
2022-09-26T13:19:06.209Z,4.57
2022-09-26T13:20:12.511Z,5.20